Terminal Aerodrome Forecast
Issued by NWS

Home | Current Version | Previous Version | Text Only | Print | Product List | Glossary On
Versions: 1 2 3 4 5 6 7 8 9 10 11 12 13 14 15 16 17 18 19 20
000
FTUS42 KMLB 062238 AAB
TAFTIX
TAF AMD
KTIX 062238Z 0623/0718 29010KT P6SM SCT025 BKN040 OVC120
      TEMPO 0623/0624 VRB15G25KT 1SM +TSRA BKN025CB OVC040
     FM070000 VRB04KT P6SM VCSH SCT025 SCT080 BKN250
     FM070200 VRB03KT P6SM SCT030 BKN250
     FM071400 22005KT P6SM FEW025 SCT250=

USA.gov is the U.S. government's official web portal to all federal, state and local government web resources and services.